createdAt,value
2018-04-26T00:01:45.623Z,15.35
2018-04-26T00:04:13.108Z,15.26
2018-04-26T00:06:40.603Z,15.18
2018-04-26T00:09:08.083Z,15.17
2018-04-26T00:11:35.562Z,15.09
2018-04-26T00:14:03.050Z,15.09
2018-04-26T00:16:30.527Z,15.11
2018-04-26T00:18:58.106Z,15.16
2018-04-26T00:21:25.579Z,15.21
2018-04-26T00:23:53.076Z,15.25
2018-04-26T00:26:20.544Z,15.25
2018-04-26T00:28:48.037Z,15.26
2018-04-26T00:31:15.499Z,15.28
2018-04-26T00:33:42.998Z,15.28
2018-04-26T00:36:10.473Z,15.31
2018-04-26T00:38:37.950Z,15.32
2018-04-26T00:41:05.408Z,15.34
2018-04-26T00:43:32.889Z,15.39
2018-04-26T00:46:00.379Z,15.40
2018-04-26T00:48:27.863Z,15.25
2018-04-26T00:50:55.342Z,14.97
2018-04-26T00:53:22.797Z,14.77
2018-04-26T00:55:50.286Z,14.56
2018-04-26T00:58:17.767Z,14.45
2018-04-26T01:00:45.256Z,14.38
2018-04-26T01:03:12.719Z,14.20
2018-04-26T01:05:40.197Z,14.08
2018-04-26T01:08:07.654Z,13.95
2018-04-26T01:10:35.138Z,13.88
2018-04-26T01:13:02.611Z,13.80
2018-04-26T01:15:30.094Z,13.76
2018-04-26T01:17:57.559Z,13.71
2018-04-26T01:20:25.045Z,13.65
2018-04-26T01:22:52.500Z,13.59
2018-04-26T01:25:19.978Z,13.51
2018-04-26T01:27:47.461Z,13.50
2018-04-26T01:30:14.950Z,13.48
2018-04-26T01:32:42.412Z,13.45
2018-04-26T01:35:09.899Z,13.31
2018-04-26T01:37:44.187Z,13.21
2018-04-26T01:40:11.670Z,13.17
2018-04-26T01:42:39.130Z,13.13
2018-04-26T01:45:06.709Z,13.09
2018-04-26T01:47:34.187Z,13.08
2018-04-26T01:50:01.667Z,13.12
2018-04-26T01:52:29.135Z,13.12
2018-04-26T01:54:56.615Z,13.11
2018-04-26T01:57:24.073Z,13.09
2018-04-26T01:59:51.555Z,13.10
2018-04-26T02:02:19.048Z,13.01
2018-04-26T02:04:46.542Z,13.02
2018-04-26T02:07:14.003Z,13.02
2018-04-26T02:09:41.458Z,13.01
2018-04-26T02:12:08.946Z,12.98
2018-04-26T02:14:36.426Z,12.99
2018-04-26T02:17:03.901Z,12.90
2018-04-26T02:19:31.359Z,12.90
2018-04-26T02:21:58.844Z,12.93
2018-04-26T02:24:26.306Z,12.90
2018-04-26T02:26:53.790Z,12.87
2018-04-26T02:29:21.250Z,12.88
2018-04-26T02:31:48.742Z,12.87
2018-04-26T02:34:16.193Z,12.89
2018-04-26T02:36:43.670Z,12.88
2018-04-26T02:39:11.133Z,12.86
2018-04-26T02:41:38.614Z,12.89
2018-04-26T02:44:06.074Z,12.86
2018-04-26T02:46:33.554Z,12.87
2018-04-26T02:49:01.022Z,12.90
2018-04-26T02:51:28.506Z,12.89
2018-04-26T02:53:55.978Z,12.91
2018-04-26T02:56:23.453Z,12.92
2018-04-26T02:58:50.919Z,12.94
2018-04-26T03:01:18.422Z,12.90
2018-04-26T03:03:45.883Z,12.90
2018-04-26T03:06:13.342Z,12.92
2018-04-26T03:08:40.829Z,12.88
2018-04-26T03:11:08.285Z,12.87
2018-04-26T03:13:35.767Z,12.86
2018-04-26T03:16:03.231Z,12.85
2018-04-26T03:18:30.710Z,12.79
2018-04-26T03:20:58.190Z,12.79
2018-04-26T03:23:25.675Z,12.79
2018-04-26T03:25:53.178Z,12.78
2018-04-26T03:28:20.658Z,12.80
2018-04-26T03:30:48.127Z,12.80
2018-04-26T03:33:15.607Z,12.79
2018-04-26T03:35:43.070Z,12.80
2018-04-26T03:38:10.550Z,12.77
2018-04-26T03:40:38.015Z,12.70
2018-04-26T03:43:05.506Z,12.69
2018-04-26T03:45:32.965Z,12.68
2018-04-26T03:48:00.450Z,12.62
2018-04-26T03:50:27.916Z,12.53
2018-04-26T03:52:55.410Z,12.45
2018-04-26T03:55:22.873Z,12.36
2018-04-26T03:57:50.374Z,12.32
2018-04-26T04:00:29.593Z,12.32
2018-04-26T04:03:08.884Z,12.33
2018-04-26T04:05:48.305Z,12.31
2018-04-26T04:08:15.795Z,12.31
2018-04-26T04:10:43.266Z,12.24
2018-04-26T04:13:10.749Z,12.16
2018-04-26T04:15:38.206Z,12.04
2018-04-26T04:18:05.690Z,11.91
2018-04-26T04:20:33.147Z,11.86
2018-04-26T04:23:01.511Z,11.87
2018-04-26T04:25:28.975Z,11.82
2018-04-26T04:27:56.494Z,11.74
2018-04-26T04:30:23.934Z,11.70
2018-04-26T04:32:51.414Z,11.69
2018-04-26T04:35:18.923Z,11.64
2018-04-26T04:37:46.348Z,11.55
2018-04-26T04:40:13.827Z,11.56
2018-04-26T04:42:41.294Z,11.55
2018-04-26T04:45:08.823Z,11.59
2018-04-26T04:47:36.260Z,11.60
2018-04-26T04:50:03.742Z,11.60
2018-04-26T04:52:31.198Z,11.62
2018-04-26T04:54:58.674Z,11.60
2018-04-26T04:57:26.129Z,11.58
2018-04-26T04:59:53.623Z,11.59
2018-04-26T05:02:21.090Z,11.58
2018-04-26T05:04:48.591Z,11.62
2018-04-26T05:07:16.903Z,11.66
2018-04-26T05:09:44.542Z,11.72
2018-04-26T05:12:11.999Z,11.81
2018-04-26T05:14:39.473Z,11.91
2018-04-26T05:17:06.996Z,11.94
2018-04-26T05:19:34.522Z,12.01
2018-04-26T05:22:01.974Z,12.04
2018-04-26T05:24:29.462Z,12.10
2018-04-26T05:26:56.923Z,12.13
2018-04-26T05:29:24.407Z,12.10
2018-04-26T05:31:51.863Z,12.10
2018-04-26T05:34:19.341Z,12.12
2018-04-26T05:36:46.798Z,12.14
2018-04-26T05:39:14.258Z,12.19
2018-04-26T05:41:41.738Z,12.27
2018-04-26T05:44:09.198Z,12.32
2018-04-26T05:46:36.694Z,12.36
2018-04-26T05:49:04.151Z,12.45
2018-04-26T05:51:31.642Z,12.50
2018-04-26T05:53:59.106Z,12.54
2018-04-26T05:56:26.587Z,12.57
2018-04-26T05:58:54.046Z,12.53
2018-04-26T06:01:21.543Z,12.54
2018-04-26T06:03:49.032Z,12.50
2018-04-26T06:06:16.494Z,12.57
2018-04-26T06:08:43.953Z,12.62
2018-04-26T06:11:11.429Z,12.67
2018-04-26T06:13:38.886Z,12.80
2018-04-26T06:16:06.388Z,12.90
2018-04-26T06:18:33.872Z,12.94
2018-04-26T06:21:01.350Z,13.00
2018-04-26T06:23:28.816Z,13.24
2018-04-26T06:25:56.299Z,13.35
2018-04-26T06:28:23.779Z,13.43
2018-04-26T06:30:51.258Z,13.40
2018-04-26T06:33:18.726Z,13.27
2018-04-26T06:35:46.186Z,13.18
2018-04-26T06:38:13.674Z,13.19
2018-04-26T06:40:41.162Z,13.26
2018-04-26T06:43:08.677Z,13.38
2018-04-26T06:45:36.183Z,13.46
2018-04-26T06:48:03.670Z,13.75
2018-04-26T06:50:31.137Z,13.84
2018-04-26T06:53:05.032Z,13.77
2018-04-26T06:55:32.496Z,13.65
2018-04-26T06:57:59.975Z,13.72
2018-04-26T07:00:27.449Z,13.84
2018-04-26T07:02:54.962Z,13.94
2018-04-26T07:05:22.431Z,14.02
2018-04-26T07:07:49.911Z,14.11
2018-04-26T07:10:17.367Z,14.12
2018-04-26T07:12:44.858Z,14.22
2018-04-26T07:15:12.314Z,14.27
2018-04-26T07:17:39.826Z,14.21
2018-04-26T07:20:07.347Z,14.26
2018-04-26T07:22:34.831Z,14.37
2018-04-26T07:25:02.291Z,14.41
2018-04-26T07:27:29.779Z,14.47
2018-04-26T07:29:57.258Z,14.39
2018-04-26T07:32:24.751Z,14.45
2018-04-26T07:34:52.274Z,14.53
2018-04-26T07:37:19.729Z,14.59
2018-04-26T07:39:48.134Z,14.79
2018-04-26T07:42:15.625Z,15.12
2018-04-26T07:44:43.105Z,15.34
2018-04-26T07:47:10.611Z,15.52
2018-04-26T07:49:40.075Z,15.45
2018-04-26T07:52:07.918Z,15.31
2018-04-26T07:54:36.933Z,15.48
2018-04-26T07:57:04.471Z,15.46
2018-04-26T07:59:31.988Z,15.61
2018-04-26T08:02:00.471Z,16.02
2018-04-26T08:04:27.974Z,15.83
2018-04-26T08:06:55.439Z,15.84
2018-04-26T08:09:22.923Z,15.57
2018-04-26T08:11:50.432Z,15.48
2018-04-26T08:14:22.086Z,15.79
2018-04-26T08:16:50.306Z,15.96
2018-04-26T08:19:17.864Z,15.87
2018-04-26T08:21:45.331Z,16.09
2018-04-26T08:24:12.834Z,16.39
2018-04-26T08:26:40.297Z,16.16
2018-04-26T08:29:07.993Z,16.32
2018-04-26T08:31:38.981Z,15.89
2018-04-26T08:34:06.747Z,15.91
2018-04-26T08:36:34.221Z,16.01
2018-04-26T08:39:01.719Z,16.01
2018-04-26T08:41:31.833Z,15.91
2018-04-26T08:43:59.469Z,16.19
2018-04-26T08:46:26.931Z,16.07
2018-04-26T08:48:54.418Z,16.26
2018-04-26T08:51:21.910Z,16.05
2018-04-26T08:53:49.390Z,16.21
2018-04-26T08:56:16.891Z,16.04
2018-04-26T08:58:44.414Z,16.21
2018-04-26T09:01:13.465Z,16.35
2018-04-26T09:03:41.245Z,16.82
2018-04-26T09:06:08.761Z,16.89
2018-04-26T09:08:36.227Z,16.87
2018-04-26T09:11:03.742Z,16.74
2018-04-26T09:13:31.222Z,16.98
2018-04-26T09:15:58.770Z,17.39
2018-04-26T09:18:26.186Z,17.50
2018-04-26T09:20:53.734Z,17.69
2018-04-26T09:23:21.232Z,17.29
2018-04-26T09:25:48.743Z,17.83
2018-04-26T09:28:20.076Z,17.61
2018-04-26T09:30:48.546Z,18.36
2018-04-26T09:33:16.003Z,18.79
2018-04-26T09:35:43.835Z,18.38
2018-04-26T09:38:11.956Z,18.36
2018-04-26T09:40:41.668Z,17.93
2018-04-26T09:43:09.999Z,17.62
2018-04-26T09:45:37.587Z,17.29
2018-04-26T09:48:05.058Z,17.18
2018-04-26T09:50:32.561Z,17.31
2018-04-26T09:53:02.574Z,17.50
2018-04-26T09:55:30.155Z,17.58
2018-04-26T09:57:57.620Z,17.66
2018-04-26T10:00:27.987Z,17.71
2018-04-26T10:02:55.451Z,17.72
2018-04-26T10:05:28.420Z,17.88
2018-04-26T10:07:55.874Z,17.69
2018-04-26T10:10:23.367Z,18.84
2018-04-26T10:12:53.963Z,18.65
2018-04-26T10:15:21.452Z,19.53
2018-04-26T10:17:52.393Z,20.31
2018-04-26T10:20:20.043Z,19.61
2018-04-26T10:22:47.531Z,19.56
2018-04-26T10:25:15.059Z,20.02
2018-04-26T10:27:42.941Z,19.56
2018-04-26T10:30:10.443Z,19.12
2018-04-26T10:32:38.232Z,19.29
2018-04-26T10:35:05.729Z,18.91
2018-04-26T10:37:33.239Z,18.50
2018-04-26T10:40:00.770Z,18.29
2018-04-26T10:42:28.265Z,18.64
2018-04-26T10:44:55.758Z,18.99
2018-04-26T10:47:23.257Z,19.18
2018-04-26T10:49:50.736Z,19.56
2018-04-26T10:52:19.235Z,19.90
2018-04-26T10:54:48.522Z,19.28
2018-04-26T10:57:16.216Z,18.81
2018-04-26T10:59:43.677Z,18.85
2018-04-26T11:02:12.008Z,18.79
2018-04-26T11:04:42.215Z,20.06
2018-04-26T11:07:09.794Z,21.95
2018-04-26T11:09:37.321Z,22.15
2018-04-26T11:12:04.843Z,22.15
2018-04-26T11:14:32.317Z,20.58
2018-04-26T11:16:59.876Z,20.05
2018-04-26T11:19:27.333Z,19.60
2018-04-26T11:21:54.818Z,19.78
2018-04-26T11:24:22.391Z,19.58
2018-04-26T11:26:49.791Z,18.90
2018-04-26T11:29:18.096Z,19.99
2018-04-26T11:31:45.518Z,20.19
2018-04-26T11:34:13.026Z,20.54
2018-04-26T11:36:40.486Z,21.06
2018-04-26T11:39:08.014Z,23.77
2018-04-26T11:41:35.477Z,24.80
2018-04-26T11:44:02.983Z,25.98
2018-04-26T11:46:30.464Z,24.69
2018-04-26T11:48:57.955Z,23.45
2018-04-26T11:51:25.458Z,25.38
2018-04-26T11:53:53.038Z,26.50
2018-04-26T11:56:22.421Z,25.35
2018-04-26T11:58:49.955Z,25.33
2018-04-26T12:01:17.526Z,27.10
2018-04-26T12:03:45.630Z,27.57
2018-04-26T12:06:13.091Z,27.65
2018-04-26T12:08:40.589Z,28.13
2018-04-26T12:11:08.103Z,27.74
2018-04-26T12:13:35.591Z,27.74
2018-04-26T12:16:06.188Z,27.03
2018-04-26T12:18:35.387Z,27.53
2018-04-26T12:21:03.774Z,29.35
2018-04-26T12:23:31.367Z,28.97
2018-04-26T12:25:58.792Z,29.68
2018-04-26T12:28:27.375Z,28.71
2018-04-26T12:30:54.891Z,28.91
2018-04-26T12:33:25.152Z,28.59
2018-04-26T12:35:53.888Z,25.35
2018-04-26T12:38:24.607Z,24.93
2018-04-26T12:40:52.118Z,25.73
2018-04-26T12:43:19.583Z,27.22
2018-04-26T12:45:47.069Z,28.12
2018-04-26T12:48:14.554Z,29.66
2018-04-26T12:50:42.096Z,29.70
2018-04-26T12:53:09.963Z,29.60
2018-04-26T12:55:37.454Z,29.44
2018-04-26T12:58:04.968Z,30.48
2018-04-26T13:00:32.440Z,29.30
2018-04-26T13:02:59.914Z,28.56
2018-04-26T13:05:27.460Z,27.53
2018-04-26T13:07:54.995Z,27.45
2018-04-26T13:10:22.460Z,28.81
2018-04-26T13:12:49.954Z,26.67
2018-04-26T13:15:17.455Z,29.77
2018-04-26T13:17:44.997Z,30.41
2018-04-26T13:20:12.478Z,28.07
2018-04-26T13:22:39.980Z,28.50
2018-04-26T13:25:07.542Z,28.12
2018-04-26T13:27:35.221Z,29.23
2018-04-26T13:30:02.710Z,29.16
2018-04-26T13:32:30.190Z,29.06
2018-04-26T13:34:57.682Z,29.59
2018-04-26T13:37:25.225Z,29.33
2018-04-26T13:39:52.782Z,31.41
2018-04-26T13:42:20.210Z,30.62
2018-04-26T13:44:47.696Z,30.67
2018-04-26T13:47:15.261Z,30.28
2018-04-26T13:49:42.762Z,30.89
2018-04-26T13:52:10.221Z,30.42
2018-04-26T13:54:37.678Z,30.36
2018-04-26T13:57:05.195Z,30.86
2018-04-26T13:59:32.660Z,30.42
2018-04-26T14:02:00.183Z,30.45
2018-04-26T14:04:27.659Z,31.69
2018-04-26T14:06:55.146Z,32.35
2018-04-26T14:09:22.614Z,33.38
2018-04-26T14:11:50.143Z,32.16
2018-04-26T14:14:17.631Z,31.40
2018-04-26T14:16:45.118Z,32.66
2018-04-26T14:19:12.595Z,30.37
2018-04-26T14:21:40.090Z,29.02
2018-04-26T14:24:07.612Z,31.88
2018-04-26T14:26:35.117Z,32.92
2018-04-26T14:29:02.603Z,32.11
2018-04-26T14:31:30.090Z,31.93
2018-04-26T14:33:57.556Z,29.15
2018-04-26T14:36:25.058Z,31.04
2018-04-26T14:38:52.523Z,29.97
2018-04-26T14:41:20.007Z,31.48
2018-04-26T14:43:47.470Z,32.31
2018-04-26T14:46:15.294Z,32.53
2018-04-26T14:48:42.780Z,30.61
2018-04-26T14:51:10.373Z,32.93
2018-04-26T14:53:37.835Z,33.76
2018-04-26T14:56:05.354Z,29.23
2018-04-26T14:58:32.825Z,26.11
2018-04-26T15:01:05.041Z,25.11
2018-04-26T15:03:32.541Z,25.03
2018-04-26T15:06:00.011Z,26.72
2018-04-26T15:08:27.515Z,26.55
2018-04-26T15:10:54.990Z,26.25
2018-04-26T15:13:22.476Z,24.77
2018-04-26T15:15:49.938Z,24.42
2018-04-26T15:18:17.433Z,23.14
2018-04-26T15:20:44.927Z,23.22
2018-04-26T15:23:12.409Z,23.82
2018-04-26T15:25:39.908Z,23.37
2018-04-26T15:28:07.714Z,22.43
2018-04-26T15:30:35.183Z,22.25
2018-04-26T15:33:02.666Z,23.52
2018-04-26T15:35:30.139Z,23.50
2018-04-26T15:37:57.618Z,23.38
2018-04-26T15:40:25.108Z,25.49
2018-04-26T15:42:52.590Z,27.16
2018-04-26T15:45:20.047Z,27.87
2018-04-26T15:47:47.529Z,26.95
2018-04-26T15:50:15.173Z,27.18
2018-04-26T15:56:12.974Z,25.21
2018-04-26T16:02:19.629Z,25.74
2018-04-26T16:04:58.913Z,27.87
2018-04-26T16:07:54.749Z,25.57
2018-04-26T16:10:39.910Z,24.27
2018-04-26T16:13:24.774Z,23.84
2018-04-26T16:16:09.750Z,23.68
2018-04-26T16:18:48.962Z,24.68
2018-04-26T16:21:34.975Z,26.84
2018-04-26T16:24:33.731Z,26.89
2018-04-26T16:27:18.842Z,25.69
2018-04-26T16:29:58.174Z,23.51
2018-04-26T16:32:37.655Z,24.26
2018-04-26T16:35:21.202Z,27.25
2018-04-26T16:38:06.303Z,28.79
2018-04-26T16:40:33.776Z,28.26
2018-04-26T16:43:01.327Z,28.64
2018-04-26T16:45:28.756Z,28.68
2018-04-26T16:47:56.241Z,29.93
2018-04-26T16:50:23.704Z,27.03
2018-04-26T16:52:51.180Z,25.10
2018-04-26T16:55:18.697Z,23.11
2018-04-26T16:57:46.161Z,22.07
2018-04-26T17:00:13.670Z,22.71
2018-04-26T17:02:44.444Z,26.06
2018-04-26T17:05:12.150Z,24.77
2018-04-26T17:07:41.614Z,22.99
2018-04-26T17:10:09.329Z,21.74
2018-04-26T17:12:36.876Z,20.30
2018-04-26T17:15:04.366Z,19.68
2018-04-26T17:17:31.843Z,19.17
2018-04-26T17:19:59.325Z,18.73
2018-04-26T17:22:26.783Z,18.54
2018-04-26T17:24:54.308Z,18.35
2018-04-26T17:27:21.771Z,18.03
2018-04-26T17:29:49.270Z,17.81
2018-04-26T17:32:16.731Z,17.68
2018-04-26T17:34:44.224Z,17.55
2018-04-26T17:37:11.714Z,17.50
2018-04-26T17:39:39.194Z,17.47
2018-04-26T17:42:06.663Z,17.61
2018-04-26T17:44:34.155Z,17.55
2018-04-26T17:47:01.614Z,17.32
2018-04-26T17:49:29.137Z,17.26
2018-04-26T17:51:56.606Z,17.13
2018-04-26T17:54:24.066Z,16.96
2018-04-26T17:56:51.582Z,16.81
2018-04-26T17:59:19.070Z,16.62
2018-04-26T18:01:46.591Z,16.57
2018-04-26T18:04:14.047Z,16.48
2018-04-26T18:06:41.546Z,16.39
2018-04-26T18:09:09.002Z,16.32
2018-04-26T18:11:36.486Z,16.37
2018-04-26T18:14:03.957Z,16.25
2018-04-26T18:16:31.458Z,16.16
2018-04-26T18:18:58.922Z,16.17
2018-04-26T18:21:26.406Z,16.12
2018-04-26T18:23:53.902Z,16.07
2018-04-26T18:26:21.398Z,16.06
2018-04-26T18:28:48.863Z,15.96
2018-04-26T18:31:16.345Z,15.90
2018-04-26T18:33:43.814Z,15.85
2018-04-26T18:36:11.299Z,15.80
2018-04-26T18:38:38.754Z,15.78
2018-04-26T18:41:06.229Z,15.74
2018-04-26T18:43:35.167Z,15.71
2018-04-26T18:46:02.750Z,15.62
2018-04-26T18:48:30.281Z,15.57
2018-04-26T18:50:58.197Z,15.52
2018-04-26T18:53:26.100Z,15.49
2018-04-26T18:55:53.595Z,15.42
2018-04-26T18:58:21.085Z,15.40
2018-04-26T19:00:48.571Z,15.33
2018-04-26T19:03:16.131Z,15.31
2018-04-26T19:05:43.646Z,15.28
2018-04-26T19:08:11.146Z,15.28
2018-04-26T19:10:41.016Z,15.24
2018-04-26T19:13:09.213Z,15.25
2018-04-26T19:15:36.763Z,15.21
2018-04-26T19:18:04.694Z,15.17
2018-04-26T19:20:32.243Z,15.11
2018-04-26T19:22:59.742Z,15.10
2018-04-26T19:25:27.246Z,15.02
2018-04-26T19:27:54.827Z,14.94
2018-04-26T19:30:22.336Z,14.93
2018-04-26T19:32:49.845Z,14.93
2018-04-26T19:35:17.354Z,14.89
2018-04-26T19:37:44.833Z,14.84
2018-04-26T19:40:13.026Z,14.78
2018-04-26T19:42:40.586Z,14.74
2018-04-26T19:45:08.110Z,14.63
2018-04-26T19:47:35.605Z,14.55
2018-04-26T19:50:04.921Z,14.51
2018-04-26T19:52:32.451Z,14.52
2018-04-26T19:54:59.911Z,14.50
2018-04-26T19:57:27.403Z,14.53
2018-04-26T19:59:54.860Z,14.54
2018-04-26T20:02:22.610Z,14.55
2018-04-26T20:04:50.131Z,14.55
2018-04-26T20:07:17.603Z,14.55
2018-04-26T20:09:45.206Z,14.52
2018-04-26T20:12:12.679Z,14.52
2018-04-26T20:14:40.166Z,14.49
2018-04-26T20:17:07.803Z,14.47
2018-04-26T20:19:35.310Z,14.46
2018-04-26T20:22:02.786Z,14.43
2018-04-26T20:24:30.286Z,14.38
2018-04-26T20:26:59.706Z,14.36
2018-04-26T20:29:27.208Z,14.37
2018-04-26T20:31:54.682Z,14.38
2018-04-26T20:34:22.169Z,14.35
2018-04-26T20:36:49.634Z,14.38
2018-04-26T20:39:17.127Z,14.40
2018-04-26T20:41:56.733Z,14.39
2018-04-26T20:44:36.189Z,14.34
2018-04-26T20:47:03.764Z,14.31
2018-04-26T20:49:31.249Z,14.34
2018-04-26T20:51:58.708Z,14.30
2018-04-26T20:54:26.209Z,14.29
2018-04-26T20:56:55.384Z,14.22
2018-04-26T20:59:22.870Z,14.16
2018-04-26T21:01:50.379Z,14.15
2018-04-26T21:04:17.903Z,14.13
2018-04-26T21:06:45.358Z,14.14
2018-04-26T21:09:12.926Z,14.07
2018-04-26T21:11:40.465Z,14.00
2018-04-26T21:14:08.084Z,13.94
2018-04-26T21:16:35.522Z,13.94
2018-04-26T21:19:02.986Z,13.93
2018-04-26T21:21:30.566Z,13.89
2018-04-26T21:24:01.769Z,13.87
2018-04-26T21:26:29.475Z,13.85
2018-04-26T21:28:56.956Z,13.82
2018-04-26T21:31:26.622Z,13.81
2018-04-26T21:33:54.362Z,13.76
2018-04-26T21:36:21.846Z,13.75
2018-04-26T21:38:49.341Z,13.72
2018-04-26T21:41:16.854Z,13.68
2018-04-26T21:43:44.325Z,13.62
2018-04-26T21:46:11.817Z,13.53
2018-04-26T21:48:39.282Z,13.37
2018-04-26T21:51:12.439Z,13.32
2018-04-26T21:53:45.606Z,13.27
2018-04-26T21:56:18.849Z,13.25
2018-04-26T21:58:51.994Z,13.20
2018-04-26T22:01:25.202Z,13.14
2018-04-26T22:07:02.714Z,13.16
2018-04-26T22:09:30.206Z,13.13
2018-04-26T22:11:57.691Z,13.09
2018-04-26T22:14:25.154Z,13.06
2018-04-26T22:16:52.629Z,13.03
2018-04-26T22:19:20.090Z,13.02
2018-04-26T22:21:47.574Z,13.01
2018-04-26T22:24:15.037Z,12.99
2018-04-26T22:26:42.519Z,13.02
2018-04-26T22:29:09.982Z,12.99
2018-04-26T22:31:37.467Z,12.98
2018-04-26T22:34:04.922Z,12.90
2018-04-26T22:36:32.402Z,12.85
2018-04-26T22:38:59.857Z,12.82
2018-04-26T22:41:27.336Z,12.75
2018-04-26T22:43:54.794Z,12.62
2018-04-26T22:46:22.280Z,12.59
2018-04-26T22:48:49.735Z,12.61
2018-04-26T22:51:17.230Z,12.59
2018-04-26T22:53:44.695Z,12.60
2018-04-26T22:56:12.181Z,12.63
2018-04-26T22:58:39.642Z,12.63
2018-04-26T23:01:07.138Z,12.64
2018-04-26T23:03:34.612Z,12.61
2018-04-26T23:06:02.107Z,12.60
2018-04-26T23:08:29.566Z,12.58
2018-04-26T23:10:57.026Z,12.56
2018-04-26T23:13:24.510Z,12.49
2018-04-26T23:15:51.974Z,12.44
2018-04-26T23:18:19.463Z,12.44
2018-04-26T23:20:46.918Z,12.55
2018-04-26T23:23:14.394Z,12.59
2018-04-26T23:25:41.853Z,12.53
2018-04-26T23:28:09.373Z,12.52
2018-04-26T23:30:36.849Z,12.48
2018-04-26T23:33:04.348Z,12.43
2018-04-26T23:35:31.807Z,12.37
2018-04-26T23:37:59.287Z,12.31
2018-04-26T23:40:26.742Z,12.25
2018-04-26T23:42:54.228Z,12.22
2018-04-26T23:45:21.694Z,12.21
2018-04-26T23:47:49.175Z,12.19
2018-04-26T23:50:16.641Z,12.21
2018-04-26T23:52:44.118Z,12.21
2018-04-26T23:55:11.582Z,12.16
2018-04-26T23:57:39.071Z,12.13
